createdAt,value
2023-02-06T00:01:00.083Z,30.70
2023-02-06T00:06:01.806Z,33.60
2023-02-06T00:11:08.522Z,39.40
2023-02-06T00:16:33.224Z,29.70
2023-02-06T00:21:34.940Z,30.00
2023-02-06T00:26:36.774Z,30.30
2023-02-06T00:31:40.864Z,30.50
2023-02-06T00:36:42.678Z,34.60
2023-02-06T00:41:45.122Z,31.90
2023-02-06T00:46:46.995Z,40.60
2023-02-06T00:51:48.905Z,36.10
2023-02-06T00:56:50.634Z,47.30
2023-02-06T01:01:52.360Z,56.70
2023-02-06T01:11:56.666Z,55.10
2023-02-06T01:22:00.002Z,51.80
2023-02-06T01:32:03.501Z,62.00
2023-02-06T01:37:05.257Z,78.90
2023-02-06T01:47:10.960Z,77.80
2023-02-06T01:52:21.561Z,82.20
2023-02-06T01:57:25.593Z,87.00
2023-02-06T02:02:28.708Z,86.30
2023-02-06T02:07:35.661Z,78.90
2023-02-06T02:12:37.366Z,89.80
2023-02-06T02:17:56.040Z,92.50
2023-02-06T02:23:21.338Z,86.50
2023-02-06T02:28:38.187Z,81.10
2023-02-06T02:34:09.929Z,77.50
2023-02-06T02:39:29.930Z,69.40
2023-02-06T02:45:02.089Z,76.80
2023-02-06T02:50:05.515Z,70.60
2023-02-06T02:55:16.205Z,71.70
2023-02-06T03:00:20.596Z,65.40
2023-02-06T03:05:25.100Z,63.00
2023-02-06T03:11:03.933Z,61.60
2023-02-06T03:16:11.453Z,73.20
2023-02-06T03:21:17.741Z,62.10
2023-02-06T03:26:23.820Z,77.70
2023-02-06T03:32:15.103Z,71.80
2023-02-06T03:37:17.293Z,40.70
2023-02-06T03:42:21.814Z,65.10
2023-02-06T03:47:25.678Z,70.10
2023-02-06T03:52:33.372Z,61.50
2023-02-06T03:57:37.333Z,67.40
2023-02-06T04:02:40.691Z,58.30
2023-02-06T04:07:42.736Z,64.20
2023-02-06T04:12:44.469Z,54.30
2023-02-06T04:17:58.758Z,50.90
2023-02-06T04:23:01.504Z,51.90
2023-02-06T04:28:04.005Z,43.70
2023-02-06T04:33:05.829Z,39.70
2023-02-06T04:48:10.846Z,73.40
2023-02-06T04:58:14.099Z,52.30
2023-02-06T05:03:15.817Z,47.70
2023-02-06T05:13:19.957Z,64.90
2023-02-06T05:18:21.972Z,53.50
2023-02-06T05:23:23.662Z,65.20
2023-02-06T05:33:36.765Z,54.90
2023-02-06T05:48:42.256Z,69.00
2023-02-06T05:53:43.965Z,72.30
2023-02-06T05:58:45.718Z,86.30
2023-02-06T06:03:47.455Z,92.00
2023-02-06T06:08:49.243Z,100.20
2023-02-06T06:18:52.590Z,99.90
2023-02-06T06:23:54.257Z,118.90
2023-02-06T06:28:56.917Z,115.00
2023-02-06T06:33:58.659Z,112.40
2023-02-06T06:39:00.390Z,106.80
2023-02-06T06:44:10.389Z,119.70
2023-02-06T06:49:12.057Z,119.70
2023-02-06T06:54:15.246Z,115.10
2023-02-06T06:59:16.976Z,108.90
2023-02-06T07:04:20.991Z,108.30
2023-02-06T07:09:23.208Z,106.10
2023-02-06T07:14:25.049Z,100.70
2023-02-06T07:19:26.758Z,103.20
2023-02-06T07:24:28.497Z,116.40
2023-02-06T07:29:30.210Z,122.50
2023-02-06T07:34:32.336Z,117.50
2023-02-06T07:39:34.035Z,103.40
2023-02-06T07:44:35.760Z,110.50
2023-02-06T07:49:37.374Z,110.50
2023-02-06T07:54:39.106Z,102.70
2023-02-06T08:04:42.643Z,144.80
2023-02-06T08:09:44.435Z,168.00
2023-02-06T08:14:46.056Z,150.20
2023-02-06T08:19:49.074Z,138.40
2023-02-06T08:24:50.912Z,123.00
2023-02-06T08:34:54.264Z,87.40
2023-02-06T08:44:57.562Z,83.00
2023-02-06T08:50:01.502Z,67.00
2023-02-06T08:55:06.436Z,67.00
2023-02-06T09:00:09.992Z,65.10
2023-02-06T09:05:11.678Z,65.10
2023-02-06T09:15:29.439Z,45.20
2023-02-06T09:20:31.100Z,44.50
2023-02-06T09:30:34.443Z,35.60
2023-02-06T09:35:36.470Z,32.70
2023-02-06T09:40:38.716Z,38.80
2023-02-06T09:45:41.137Z,32.50
2023-02-06T09:51:15.401Z,29.20
2023-02-06T09:56:38.579Z,24.10
2023-02-06T10:01:49.324Z,74.30
2023-02-06T10:07:04.217Z,27.20
2023-02-06T10:12:29.984Z,26.70
2023-02-06T10:17:36.957Z,34.50
2023-02-06T10:23:04.719Z,27.30
2023-02-06T10:28:21.825Z,32.10
2023-02-06T10:33:47.080Z,30.80
2023-02-06T10:39:01.247Z,33.60
2023-02-06T10:44:28.921Z,31.50
2023-02-06T10:49:43.870Z,35.40
2023-02-06T10:54:52.376Z,29.30
2023-02-06T10:59:59.987Z,30.30
2023-02-06T11:05:13.885Z,26.30
2023-02-06T11:10:19.048Z,24.20
2023-02-06T11:15:32.799Z,21.10
2023-02-06T11:20:38.203Z,23.90
2023-02-06T11:25:42.237Z,19.80
2023-02-06T11:30:59.399Z,24.20
2023-02-06T11:36:02.254Z,24.20
2023-02-06T11:41:17.664Z,21.90
2023-02-06T11:46:28.317Z,27.90
2023-02-06T11:51:48.381Z,28.80
2023-02-06T11:57:23.995Z,32.40
2023-02-06T12:02:35.576Z,28.20
2023-02-06T12:07:42.265Z,39.10
2023-02-06T12:12:53.152Z,39.90
2023-02-06T12:18:03.162Z,31.90
2023-02-06T12:23:31.546Z,28.50
2023-02-06T12:28:55.874Z,36.90
2023-02-06T12:34:14.720Z,30.10
2023-02-06T12:39:22.865Z,40.10
2023-02-06T12:44:35.903Z,56.20
2023-02-06T12:50:23.144Z,36.70
2023-02-06T12:55:31.035Z,40.70
2023-02-06T13:00:45.005Z,39.40
2023-02-06T13:05:50.051Z,47.90
2023-02-06T13:11:04.830Z,39.00
2023-02-06T13:16:08.121Z,44.90
2023-02-06T13:21:20.064Z,46.00
2023-02-06T13:26:56.271Z,35.70
2023-02-06T13:32:18.657Z,35.20
2023-02-06T13:37:35.526Z,29.80
2023-02-06T13:42:54.124Z,24.10
2023-02-06T13:48:31.601Z,28.70
2023-02-06T13:53:52.296Z,21.40
2023-02-06T13:58:57.795Z,27.80
2023-02-06T14:04:15.190Z,32.50
2023-02-06T14:09:45.838Z,31.80
2023-02-06T14:15:00.641Z,25.50
2023-02-06T14:20:29.333Z,19.90
2023-02-06T14:25:55.786Z,28.10
2023-02-06T14:31:15.886Z,29.20
2023-02-06T14:36:47.909Z,45.50
2023-02-06T14:46:51.896Z,27.80
2023-02-06T14:51:53.842Z,22.40
2023-02-06T14:56:57.469Z,26.80
2023-02-06T15:02:11.403Z,30.40
2023-02-06T15:07:27.682Z,24.60
2023-02-06T15:12:30.188Z,25.60
2023-02-06T15:17:34.062Z,18.80
2023-02-06T15:22:35.884Z,24.70
2023-02-06T15:27:38.809Z,25.40
2023-02-06T15:32:40.687Z,23.00
2023-02-06T15:37:42.507Z,30.90
2023-02-06T15:42:46.054Z,33.90
2023-02-06T15:47:50.189Z,30.60
2023-02-06T15:52:52.216Z,34.30
2023-02-06T15:57:56.310Z,53.40
2023-02-06T16:03:05.075Z,77.40
2023-02-06T16:08:30.968Z,124.90
2023-02-06T16:13:33.367Z,66.20
2023-02-06T16:18:42.225Z,63.10
2023-02-06T16:24:03.442Z,65.50
2023-02-06T16:29:20.832Z,91.10
2023-02-06T16:34:31.581Z,45.90
2023-02-06T16:39:33.342Z,51.90
2023-02-06T16:44:44.754Z,77.40
2023-02-06T16:49:52.319Z,85.90
2023-02-06T16:54:56.012Z,74.60
2023-02-06T16:59:59.298Z,90.50
2023-02-06T17:05:01.248Z,74.70
2023-02-06T17:10:03.654Z,134.80
2023-02-06T17:15:06.546Z,123.70
2023-02-06T17:20:26.697Z,110.60
2023-02-06T17:25:29.054Z,103.30
2023-02-06T17:30:30.848Z,66.30
2023-02-06T17:35:36.572Z,77.30
2023-02-06T17:40:40.774Z,54.60
2023-02-06T17:45:43.062Z,66.10
2023-02-06T17:50:45.194Z,54.80
2023-02-06T17:55:47.519Z,69.30
2023-02-06T18:00:50.286Z,77.80
2023-02-06T18:05:59.801Z,99.30
2023-02-06T18:11:08.473Z,65.90
2023-02-06T18:16:19.826Z,69.70
2023-02-06T18:26:27.243Z,65.10
2023-02-06T18:31:33.296Z,73.20
2023-02-06T18:36:36.907Z,53.60
2023-02-06T18:41:57.687Z,66.50
2023-02-06T18:46:59.592Z,86.60
2023-02-06T18:52:01.573Z,86.90
2023-02-06T18:57:04.863Z,80.30
2023-02-06T19:02:09.930Z,88.10
2023-02-06T19:07:21.998Z,100.20
2023-02-06T19:12:24.005Z,95.50
2023-02-06T19:17:27.264Z,85.70
2023-02-06T19:22:29.305Z,82.80
2023-02-06T19:27:31.040Z,100.30
2023-02-06T19:32:32.925Z,93.00
2023-02-06T19:37:34.967Z,102.10
2023-02-06T19:42:36.945Z,93.90
2023-02-06T19:47:38.704Z,91.40
2023-02-06T19:52:40.591Z,90.90
2023-02-06T19:57:42.775Z,100.90
2023-02-06T20:02:44.501Z,80.20
2023-02-06T20:07:46.180Z,88.70
2023-02-06T20:12:48.327Z,107.30
2023-02-06T20:17:51.834Z,184.70
2023-02-06T20:22:53.611Z,114.00
2023-02-06T20:27:56.633Z,123.90
2023-02-06T20:32:58.584Z,123.90
2023-02-06T20:38:00.463Z,122.10
2023-02-06T20:43:02.448Z,100.20
2023-02-06T20:48:04.318Z,106.40
2023-02-06T20:53:05.966Z,106.60
2023-02-06T20:58:07.929Z,108.40
2023-02-06T21:03:09.703Z,98.30
2023-02-06T21:08:11.821Z,105.90
2023-02-06T21:13:13.538Z,206.40
2023-02-06T21:18:15.193Z,401.20
2023-02-06T21:23:17.412Z,458.80
2023-02-06T21:28:20.079Z,260.70
2023-02-06T21:33:22.039Z,213.30
2023-02-06T21:38:24.712Z,269.40
2023-02-06T21:43:26.403Z,325.80
2023-02-06T21:48:28.437Z,323.10
2023-02-06T21:53:30.100Z,300.90
2023-02-06T21:58:31.785Z,317.80
2023-02-06T22:03:34.329Z,252.80
2023-02-06T22:08:41.527Z,315.40
2023-02-06T22:13:49.518Z,386.10
2023-02-06T22:18:51.644Z,401.10
2023-02-06T22:23:56.800Z,341.20
2023-02-06T22:28:59.408Z,391.80
2023-02-06T22:34:02.918Z,366.60
2023-02-06T22:39:08.548Z,369.20
2023-02-06T22:44:16.473Z,343.70
2023-02-06T22:49:20.418Z,367.60
2023-02-06T22:54:22.104Z,409.50
2023-02-06T22:59:25.475Z,380.60
2023-02-06T23:04:30.088Z,370.00
2023-02-06T23:09:34.773Z,345.90
2023-02-06T23:14:36.527Z,412.20
2023-02-06T23:19:39.666Z,437.90
2023-02-06T23:24:41.737Z,468.00
2023-02-06T23:29:43.411Z,371.00
2023-02-06T23:34:45.104Z,500.60
2023-02-06T23:39:47.169Z,369.50
2023-02-06T23:44:49.036Z,316.20
2023-02-06T23:49:50.738Z,384.10
2023-02-06T23:54:52.463Z,407.50
2023-02-06T23:59:54.210Z,400.50
